DWD Radarbild

   
[Quelle: ADDS]
METAR
EDLP 100250Z 26011G25KT 220V300 9999 SCT019 BKN036 04/01 Q1013 =
EDLP 092300Z 1000/1024 28012KT 9999 BKN025 TEMPO 1003/1016 BKN012 PROB30 TEMPO 1012/1015 28015G25KT 4000 SHRASN BKN009TCU TEMPO 1022/1024 BKN010
TAF
EDLP 092300Z 1000/1024 28012KT 9999 BKN025 TEMPO 1003/1016 BKN012 PROB30 TEMPO 1012/1015 28015G25KT 4000 SHRASN BKN009TCU TEMPO 1022/1024 BKN010 =
   
   

Meine WettercamWettercam aus Bielefeld Senne - Blickrichtung Süd-Ostjede Min. ein neues Bild

   
Moon phase
Phase:
Zunehmend

Mondphase:
8%

Alter:
3 Tage

Entfernung:
250,681 Km

Zeit:
04:24:01

Datum:
10-12-2018

   
<<  Dez 2018  >>
 Mo  Di  Mi  Do  Fr  Sa  So 
       1  2
  3  4  5  6  7  8  9
10111213141516
17181920212223
24252627282930
31